Zarechensk — ONGC — position and weather

sailwx.info

Track history (hours):
 
Tides and Currents Weather Stations Pressure Air Temp Water Temp Dewpoint Dewpoint Depression Visibility Wind Speed Wind Dir Waves Ship Positions

Zarechensk

Last reported at 2014-Jul-28 16:33 UTC. Time now 2014-Jul-31 07:24 UTC.
Position N 36°40' W 000°20'.

Length 180 m; draft 9.8 m.

MMSI: 205561000.

Date/timePositionNaut miles runAvg speedWind from/ knotsBaromVisibWave heightAir tempDewpointWater temp
2014-Jul-28 16:33N 36°40' W 000°20'42512.1
2014-Jul-27 05:28N 37°40' E 008°28'3411.4
2014-Jul-27 02:29N 37°42' E 009°11'1410.9
2014-Jul-27 01:13N 37°41' E 009°28'3010.5
2014-Jul-26 22:21N 37°40' E 010°06'910.7
2014-Jul-26 21:32N 37°39' E 010°17'1410.9
2014-Jul-26 20:14N 37°36' E 010°35'9612.0
2014-Jul-26 12:15N 37°01' E 012°27'1212.1
2014-Jul-26 11:16N 36°57' E 012°41'1112.6
2014-Jul-26 10:22N 36°53' E 012°54'1112.6
2014-Jul-26 09:29N 36°50' E 013°07'1312.7
2014-Jul-26 08:30N 36°46' E 013°22'1212.6
2014-Jul-26 07:33N 36°42' E 013°36'1612.5
2014-Jul-26 06:18N 36°37' E 013°55'912.4
2014-Jul-26 05:33N 36°35' E 014°06'1312.1
2014-Jul-26 04:30N 36°30' E 014°20'1112.0
2014-Jul-26 03:33N 36°27' E 014°34'1212.0
2014-Jul-26 02:33N 36°27' E 014°49'1411.9
2014-Jul-26 01:25N 36°27' E 015°06'  
2014-Jul-23 03:18N 40°53' E 028°39'1111.5
2014-Jul-23 02:18N 40°56' E 028°53'3 4.4
2014-Jul-23 01:33N 40°58' E 028°57'232 8.2
2014-Jul-21 21:24N 44°40' E 030°28'910.9
2014-Jul-21 20:33N 44°49' E 030°32'310.9
2014-Jul-21 20:18N 44°51' E 030°33'810.8
2014-Jul-21 19:33N 44°59' E 030°36'1110.7
2014-Jul-21 18:33N 45°09' E 030°40'1111.0
2014-Jul-21 17:33N 45°20' E 030°45'4911.0
2014-Jul-21 13:05N 46°08' E 031°04'37 6.5
2014-Jul-21 07:24N 46°36' E 031°39'910.2
2014-Jul-21 06:33N 46°37' E 031°51'8 8.2
2014-Jul-21 05:33N 46°44' E 031°55'5 0.9
2014-Jul-20 23:29N 46°50' E 031°56'0 0.0
2014-Jul-20 22:32N 46°50' E 031°55'0 0.1
2014-Jul-20 21:32N 46°50' E 031°56'0 0.1
2014-Jul-20 20:32N 46°50' E 031°56'0 0.0
2014-Jul-20 19:32N 46°50' E 031°56'1 1.5
2014-Jul-20 18:33N 46°51' E 031°57'1 1.1
2014-Jul-20 17:33N 46°51' E 031°59'0 0.0
2014-Jul-20 14:16N 46°51' E 031°59'0 0.0
2014-Jul-20 13:31N 46°51' E 031°59'0 0.0
2014-Jul-20 12:31N 46°51' E 031°59'0 0.0
2014-Jul-20 11:28N 46°51' E 031°59'0 0.0
2014-Jul-20 10:31N 46°51' E 031°59'0 0.0
2014-Jul-20 09:31N 46°51' E 031°59'0 0.0
2014-Jul-20 08:31N 46°51' E 031°59'0 0.0
2014-Jul-20 07:31N 46°51' E 031°59'0 0.0
2014-Jul-20 06:28N 46°51' E 031°59'0 0.0
2014-Jul-20 05:31N 46°51' E 031°59'0 0.0
2014-Jul-20 04:31N 46°51' E 031°59'0 0.0
2014-Jul-20 03:31N 46°51' E 031°59'0 0.0
2014-Jul-20 02:31N 46°51' E 031°59'0 0.0
2014-Jul-20 01:31N 46°51' E 031°59'0 0.0
2014-Jul-20 00:31N 46°51' E 031°59'0 0.0
2014-Jul-19 23:31N 46°51' E 031°59'0 0.0
2014-Jul-19 22:31N 46°51' E 031°59'0 0.0
2014-Jul-19 21:31N 46°51' E 031°59'0 0.0
2014-Jul-19 20:31N 46°51' E 031°59'0 0.0
2014-Jul-19 18:07N 46°51' E 031°59'0 0.0
2014-Jul-19 17:31N 46°51' E 031°59'0 0.0
2014-Jul-19 16:31N 46°51' E 031°59'0 0.0
2014-Jul-19 15:31N 46°51' E 031°59'0 0.0
2014-Jul-19 14:31N 46°51' E 031°59'0 0.0
2014-Jul-19 13:31N 46°51' E 031°59'0 0.0
2014-Jul-19 12:31N 46°51' E 031°59'0 0.0
2014-Jul-19 11:31N 46°51' E 031°59'0 0.0
2014-Jul-19 10:31N 46°51' E 031°59'0 0.0
2014-Jul-19 09:31N 46°51' E 031°59'0 0.0
2014-Jul-19 08:31N 46°51' E 031°59'0 0.0
2014-Jul-19 07:31N 46°51' E 031°59'0 0.0
2014-Jul-19 06:31N 46°51' E 031°59'0 0.0
2014-Jul-19 05:31N 46°51' E 031°59'0 0.0
2014-Jul-19 04:31N 46°51' E 031°59'0 0.0
2014-Jul-19 03:31N 46°51' E 031°59'0 0.0
2014-Jul-19 02:31N 46°51' E 031°59'0 0.0
2014-Jul-19 01:31N 46°51' E 031°59'0 0.0
2014-Jul-19 00:31N 46°51' E 031°59'0 0.0
2014-Jul-18 23:31N 46°51' E 031°59'0 0.0
2014-Jul-18 22:31N 46°51' E 031°59'0 0.0
2014-Jul-18 21:31N 46°51' E 031°59'0 0.0
2014-Jul-18 20:31N 46°51' E 031°59'0 0.0
2014-Jul-18 19:31N 46°51' E 031°59'0 0.0
2014-Jul-18 18:31N 46°51' E 031°59'0 0.0
2014-Jul-18 17:28N 46°51' E 031°59'  
Track history (hours):
 
Tides and Currents Weather Stations Pressure Air Temp Water Temp Dewpoint Dewpoint Depression Visibility Wind Speed Wind Dir Waves Ship Positions

Zarechensk

Last reported at 2014-Jul-28 16:33 UTC. Time now 2014-Jul-31 07:24 UTC.
Position N 36°40' W 000°20'.

Length 180 m; draft 9.8 m.

MMSI: 205561000.

Date/timePositionNaut miles runAvg speedWind from/ knotsBaromVisibWave heightAir tempDewpointWater temp
2014-Jul-28 16:33N 36°40' W 000°20'42512.1
2014-Jul-27 05:28N 37°40' E 008°28'3411.4
2014-Jul-27 02:29N 37°42' E 009°11'1410.9
2014-Jul-27 01:13N 37°41' E 009°28'3010.5
2014-Jul-26 22:21N 37°40' E 010°06'910.7
2014-Jul-26 21:32N 37°39' E 010°17'1410.9
2014-Jul-26 20:14N 37°36' E 010°35'9612.0
2014-Jul-26 12:15N 37°01' E 012°27'1212.1
2014-Jul-26 11:16N 36°57' E 012°41'1112.6
2014-Jul-26 10:22N 36°53' E 012°54'1112.6
2014-Jul-26 09:29N 36°50' E 013°07'1312.7
2014-Jul-26 08:30N 36°46' E 013°22'1212.6
2014-Jul-26 07:33N 36°42' E 013°36'1612.5
2014-Jul-26 06:18N 36°37' E 013°55'912.4
2014-Jul-26 05:33N 36°35' E 014°06'1312.1
2014-Jul-26 04:30N 36°30' E 014°20'1112.0
2014-Jul-26 03:33N 36°27' E 014°34'1212.0
2014-Jul-26 02:33N 36°27' E 014°49'1411.9
2014-Jul-26 01:25N 36°27' E 015°06'  
2014-Jul-23 03:18N 40°53' E 028°39'1111.5
2014-Jul-23 02:18N 40°56' E 028°53'3 4.4
2014-Jul-23 01:33N 40°58' E 028°57'232 8.2
2014-Jul-21 21:24N 44°40' E 030°28'910.9
2014-Jul-21 20:33N 44°49' E 030°32'310.9
2014-Jul-21 20:18N 44°51' E 030°33'810.8
2014-Jul-21 19:33N 44°59' E 030°36'1110.7
2014-Jul-21 18:33N 45°09' E 030°40'1111.0
2014-Jul-21 17:33N 45°20' E 030°45'4911.0
2014-Jul-21 13:05N 46°08' E 031°04'37 6.5
2014-Jul-21 07:24N 46°36' E 031°39'910.2
2014-Jul-21 06:33N 46°37' E 031°51'8 8.2
2014-Jul-21 05:33N 46°44' E 031°55'5 0.9
2014-Jul-20 23:29N 46°50' E 031°56'0 0.0
2014-Jul-20 22:32N 46°50' E 031°55'0 0.1
2014-Jul-20 21:32N 46°50' E 031°56'0 0.1
2014-Jul-20 20:32N 46°50' E 031°56'0 0.0
2014-Jul-20 19:32N 46°50' E 031°56'1 1.5
2014-Jul-20 18:33N 46°51' E 031°57'1 1.1
2014-Jul-20 17:33N 46°51' E 031°59'0 0.0
2014-Jul-20 14:16N 46°51' E 031°59'0 0.0
2014-Jul-20 13:31N 46°51' E 031°59'0 0.0
2014-Jul-20 12:31N 46°51' E 031°59'0 0.0
2014-Jul-20 11:28N 46°51' E 031°59'0 0.0
2014-Jul-20 10:31N 46°51' E 031°59'0 0.0
2014-Jul-20 09:31N 46°51' E 031°59'0 0.0
2014-Jul-20 08:31N 46°51' E 031°59'0 0.0
2014-Jul-20 07:31N 46°51' E 031°59'0 0.0
2014-Jul-20 06:28N 46°51' E 031°59'0 0.0
2014-Jul-20 05:31N 46°51' E 031°59'0 0.0
2014-Jul-20 04:31N 46°51' E 031°59'0 0.0
2014-Jul-20 03:31N 46°51' E 031°59'0 0.0
2014-Jul-20 02:31N 46°51' E 031°59'0 0.0
2014-Jul-20 01:31N 46°51' E 031°59'0 0.0
2014-Jul-20 00:31N 46°51' E 031°59'0 0.0
2014-Jul-19 23:31N 46°51' E 031°59'0 0.0
2014-Jul-19 22:31N 46°51' E 031°59'0 0.0
2014-Jul-19 21:31N 46°51' E 031°59'0 0.0
2014-Jul-19 20:31N 46°51' E 031°59'0 0.0
2014-Jul-19 18:07N 46°51' E 031°59'0 0.0
2014-Jul-19 17:31N 46°51' E 031°59'0 0.0
2014-Jul-19 16:31N 46°51' E 031°59'0 0.0
2014-Jul-19 15:31N 46°51' E 031°59'0 0.0
2014-Jul-19 14:31N 46°51' E 031°59'0 0.0
2014-Jul-19 13:31N 46°51' E 031°59'0 0.0
2014-Jul-19 12:31N 46°51' E 031°59'0 0.0
2014-Jul-19 11:31N 46°51' E 031°59'0 0.0
2014-Jul-19 10:31N 46°51' E 031°59'0 0.0
2014-Jul-19 09:31N 46°51' E 031°59'0 0.0
2014-Jul-19 08:31N 46°51' E 031°59'0 0.0
2014-Jul-19 07:31N 46°51' E 031°59'0 0.0
2014-Jul-19 06:31N 46°51' E 031°59'0 0.0
2014-Jul-19 05:31N 46°51' E 031°59'0 0.0
2014-Jul-19 04:31N 46°51' E 031°59'0 0.0
2014-Jul-19 03:31N 46°51' E 031°59'0 0.0
2014-Jul-19 02:31N 46°51' E 031°59'0 0.0
2014-Jul-19 01:31N 46°51' E 031°59'0 0.0
2014-Jul-19 00:31N 46°51' E 031°59'0 0.0
2014-Jul-18 23:31N 46°51' E 031°59'0 0.0
2014-Jul-18 22:31N 46°51' E 031°59'0 0.0
2014-Jul-18 21:31N 46°51' E 031°59'0 0.0
2014-Jul-18 20:31N 46°51' E 031°59'0 0.0
2014-Jul-18 19:31N 46°51' E 031°59'0 0.0
2014-Jul-18 18:31N 46°51' E 031°59'0 0.0
2014-Jul-18 17:28N 46°51' E 031°59'  

Dump ship's entire track history